createdAt,value
2023-03-05T00:02:14.940Z,96855.22
2023-03-05T00:07:18.147Z,96856.22
2023-03-05T00:12:22.850Z,96852.09
2023-03-05T00:17:26.247Z,96855.66
2023-03-05T00:22:29.728Z,96848.81
2023-03-05T00:27:34.683Z,96853.34
2023-03-05T00:32:38.371Z,96855.06
2023-03-05T00:37:42.064Z,96856.00
2023-03-05T00:42:46.732Z,96848.25
2023-03-05T00:47:50.014Z,96851.16
2023-03-05T00:52:53.623Z,96835.09
2023-03-05T00:57:58.311Z,96860.03
2023-03-05T01:03:01.667Z,96837.13
2023-03-05T01:08:05.100Z,96849.94
2023-03-05T01:13:09.746Z,96853.47
2023-03-05T01:18:13.295Z,96855.31
2023-03-05T01:23:17.352Z,96845.84
2023-03-05T01:28:22.211Z,96847.75
2023-03-05T01:33:25.492Z,96845.13
2023-03-05T01:38:28.821Z,96848.66
2023-03-05T01:43:33.840Z,96850.53
2023-03-05T01:48:37.072Z,96857.59
2023-03-05T01:53:40.981Z,96860.34
2023-03-05T01:58:46.448Z,96849.16
2023-03-05T02:03:50.317Z,96841.38
2023-03-05T02:08:53.885Z,96842.47
2023-03-05T02:13:59.379Z,96840.88
2023-03-05T02:19:02.876Z,96830.16
2023-03-05T02:24:08.300Z,96837.75
2023-03-05T02:29:15.821Z,96838.66
2023-03-05T02:34:19.066Z,96843.75
2023-03-05T02:39:23.741Z,96825.56
2023-03-05T02:44:27.321Z,96839.75
2023-03-05T02:49:30.795Z,96839.44
2023-03-05T02:54:35.472Z,96837.84
2023-03-05T02:59:38.889Z,96842.31
2023-03-05T03:04:42.255Z,96833.47
2023-03-05T03:09:46.985Z,96836.34
2023-03-05T03:14:50.207Z,96836.28
2023-03-05T03:19:53.386Z,96833.75
2023-03-05T03:24:58.095Z,96838.38
2023-03-05T03:30:04.855Z,96837.69
2023-03-05T03:35:09.877Z,96834.53
2023-03-05T03:40:15.312Z,96842.56
2023-03-05T03:45:19.069Z,96829.03
2023-03-05T03:50:25.134Z,96834.25
2023-03-05T03:55:30.064Z,96834.34
2023-03-05T04:00:33.431Z,96841.44
2023-03-05T04:05:36.750Z,96844.03
2023-03-05T04:10:41.480Z,96832.28
2023-03-05T04:15:45.120Z,96834.19
2023-03-05T04:20:48.369Z,96836.00
2023-03-05T04:25:52.967Z,96826.56
2023-03-05T04:30:56.411Z,96834.19
2023-03-05T04:36:00.041Z,96843.25
2023-03-05T04:41:04.815Z,96835.13
2023-03-05T04:46:08.068Z,96833.16
2023-03-05T04:51:11.353Z,96840.66
2023-03-05T04:56:16.129Z,96843.16
2023-03-05T05:01:19.572Z,96835.88
2023-03-05T05:06:22.862Z,96838.19
2023-03-05T05:11:27.850Z,96841.28
2023-03-05T05:16:31.450Z,96840.88
2023-03-05T05:21:34.792Z,96835.66
2023-03-05T05:26:39.757Z,96839.19
2023-03-05T05:31:43.068Z,96832.13
2023-03-05T05:36:46.633Z,96841.50
2023-03-05T05:41:53.693Z,96847.56
2023-03-05T05:46:56.983Z,96850.06
2023-03-05T05:52:00.260Z,96853.53
2023-03-05T05:57:05.122Z,96857.16
2023-03-05T06:02:09.252Z,96861.59
2023-03-05T06:07:12.837Z,96857.56
2023-03-05T06:12:17.502Z,96861.88
2023-03-05T06:17:29.939Z,96864.56
2023-03-05T06:22:33.897Z,96868.09
2023-03-05T06:27:39.572Z,96869.91
2023-03-05T06:32:42.971Z,96875.44
2023-03-05T06:37:46.208Z,96879.28
2023-03-05T06:42:50.800Z,96881.56
2023-03-05T06:47:53.960Z,96892.13
2023-03-05T06:52:57.298Z,96876.19
2023-03-05T06:58:01.982Z,96875.31
2023-03-05T07:03:05.276Z,96889.75
2023-03-05T07:08:09.436Z,96893.84
2023-03-05T07:13:14.164Z,96899.50
2023-03-05T07:18:17.865Z,96902.31
2023-03-05T07:23:21.201Z,96916.22
2023-03-05T07:28:25.851Z,96926.59
2023-03-05T07:33:29.616Z,96920.72
2023-03-05T07:38:33.321Z,96919.78
2023-03-05T07:43:38.937Z,96937.28
2023-03-05T07:48:42.548Z,96934.81
2023-03-05T07:53:47.703Z,96931.69
2023-03-05T07:58:52.336Z,96939.31
2023-03-05T08:03:55.767Z,96949.47
2023-03-05T08:09:00.212Z,96951.56
2023-03-05T08:14:04.946Z,96946.91
2023-03-05T08:19:08.507Z,96957.75
2023-03-05T08:24:13.626Z,96972.69
2023-03-05T08:29:18.272Z,96973.31
2023-03-05T08:34:21.683Z,96987.03
2023-03-05T08:39:25.264Z,96993.59
2023-03-05T08:44:30.058Z,96999.94
2023-03-05T08:49:33.323Z,97002.66
2023-03-05T08:54:38.218Z,97008.78
2023-03-05T08:59:42.865Z,97012.47
2023-03-05T09:04:46.033Z,97017.41
2023-03-05T09:09:49.368Z,97015.72
2023-03-05T09:14:55.631Z,97022.47
2023-03-05T09:19:59.049Z,97031.84
2023-03-05T09:25:02.404Z,97029.66
2023-03-05T09:30:09.512Z,97038.22
2023-03-05T09:35:13.234Z,97022.94
2023-03-05T09:40:19.392Z,97045.28
2023-03-05T09:45:28.745Z,97058.50
2023-03-05T09:50:38.816Z,97060.66
2023-03-05T09:55:45.785Z,97075.50
2023-03-05T10:00:54.336Z,97075.19
2023-03-05T10:06:07.129Z,97080.91
2023-03-05T10:11:25.894Z,97084.59
2023-03-05T10:16:50.894Z,97089.69
2023-03-05T10:22:14.154Z,97096.09
2023-03-05T10:27:22.356Z,97108.84
2023-03-05T10:32:42.682Z,97113.59
2023-03-05T10:38:10.752Z,97122.28
2023-03-05T10:43:22.708Z,97114.22
2023-03-05T10:48:39.096Z,97135.41
2023-03-05T10:53:52.081Z,97144.28
2023-03-05T10:58:56.247Z,97147.50
2023-03-05T11:04:03.904Z,97130.94
2023-03-05T11:09:28.028Z,97170.44
2023-03-05T11:14:33.530Z,97175.31
2023-03-05T11:19:39.701Z,97184.78
2023-03-05T11:24:43.570Z,97178.00
2023-03-05T11:29:50.534Z,97205.72
2023-03-05T11:34:58.694Z,97218.16
2023-03-05T11:40:20.651Z,97235.06
2023-03-05T11:45:26.413Z,97238.34
2023-03-05T11:50:33.183Z,97254.94
2023-03-05T11:55:41.436Z,97264.75
2023-03-05T12:00:47.311Z,97244.47
2023-03-05T12:05:55.480Z,97285.56
2023-03-05T12:11:00.999Z,97295.31
2023-03-05T12:16:11.921Z,97309.88
2023-03-05T12:21:32.972Z,97291.53
2023-03-05T12:26:56.293Z,97325.47
2023-03-05T12:32:01.232Z,97333.09
2023-03-05T12:37:06.133Z,97341.03
2023-03-05T12:42:39.068Z,97345.88
2023-03-05T12:47:43.032Z,97351.75
2023-03-05T12:52:47.917Z,97359.59
2023-03-05T12:57:56.784Z,97361.06
2023-03-05T13:03:02.780Z,97363.44
2023-03-05T13:08:23.246Z,97369.91
2023-03-05T13:13:29.962Z,97395.09
2023-03-05T13:18:34.520Z,97398.56
2023-03-05T13:23:39.385Z,97406.97
2023-03-05T13:28:44.449Z,97426.50
2023-03-05T13:33:54.446Z,97440.56
2023-03-05T13:38:59.926Z,97438.28
2023-03-05T13:44:04.111Z,97441.03
2023-03-05T13:49:23.534Z,97429.22
2023-03-05T13:54:30.169Z,97462.31
2023-03-05T13:59:35.263Z,97467.22
2023-03-05T14:04:42.976Z,97477.47
2023-03-05T14:09:52.106Z,97488.03
2023-03-05T14:14:56.313Z,97491.75
2023-03-05T14:20:21.621Z,97504.03
2023-03-05T14:25:33.906Z,97504.03
2023-03-05T14:30:38.280Z,97523.22
2023-03-05T14:35:41.915Z,97532.94
2023-03-05T14:40:46.812Z,97546.16
2023-03-05T14:45:50.083Z,97545.44
2023-03-05T14:50:57.184Z,97528.72
2023-03-05T14:56:02.406Z,97561.31
2023-03-05T15:01:05.810Z,97562.66
2023-03-05T15:06:16.929Z,97559.44
2023-03-05T15:11:22.761Z,97580.03
2023-03-05T15:16:25.940Z,97595.09
2023-03-05T15:21:29.169Z,97589.88
2023-03-05T15:26:33.750Z,97603.00
2023-03-05T15:31:38.952Z,97611.22
2023-03-05T15:36:42.444Z,97615.91
2023-03-05T15:41:47.403Z,97628.38
2023-03-05T15:46:50.677Z,97643.44
2023-03-05T15:51:55.167Z,97646.47
2023-03-05T15:56:59.890Z,97664.00
2023-03-05T16:02:03.332Z,97665.34
2023-03-05T16:07:07.575Z,97677.03
2023-03-05T16:12:18.153Z,97689.06
2023-03-05T16:17:23.683Z,97685.72
2023-03-05T16:22:26.976Z,97691.75
2023-03-05T16:27:31.793Z,97699.53
2023-03-05T16:32:35.150Z,97712.25
2023-03-05T16:37:38.925Z,97714.50
2023-03-05T16:42:43.699Z,97724.38
2023-03-05T16:47:46.995Z,97724.50
2023-03-05T16:52:50.358Z,97737.56
2023-03-05T16:57:55.062Z,97743.50
2023-03-05T17:02:58.369Z,97747.56
2023-03-05T17:08:02.299Z,97748.34
2023-03-05T17:13:07.152Z,97752.91
2023-03-05T17:18:10.583Z,97763.41
2023-03-05T17:23:13.893Z,97765.91
2023-03-05T17:28:19.105Z,97761.25
2023-03-05T17:33:22.337Z,97759.25
2023-03-05T17:38:26.242Z,97761.53
2023-03-05T17:43:31.142Z,97764.75
2023-03-05T17:48:39.939Z,97763.75
2023-03-05T17:53:43.747Z,97768.19
2023-03-05T17:58:48.638Z,97781.19
2023-03-05T18:03:52.084Z,97781.13
2023-03-05T18:08:55.466Z,97780.19
2023-03-05T18:14:00.641Z,97793.00
2023-03-05T18:19:04.071Z,97791.16
2023-03-05T18:24:08.004Z,97791.09
2023-03-05T18:29:12.725Z,97792.72
2023-03-05T18:34:16.064Z,97794.44
2023-03-05T18:39:20.127Z,97786.63
2023-03-05T18:44:25.101Z,97795.25
2023-03-05T18:49:29.208Z,97802.19
2023-03-05T18:54:33.365Z,97802.34
2023-03-05T18:59:38.081Z,97792.75
2023-03-05T19:04:41.394Z,97803.03
2023-03-05T19:09:58.977Z,97800.16
2023-03-05T19:15:05.662Z,97818.00
2023-03-05T19:20:12.315Z,97801.94
2023-03-05T19:25:15.597Z,97814.81
2023-03-05T19:30:20.832Z,97832.22
2023-03-05T19:35:24.250Z,97827.13
2023-03-05T19:40:28.079Z,97826.38
2023-03-05T19:45:38.445Z,97827.38
2023-03-05T19:50:43.218Z,97829.22
2023-03-05T19:55:46.388Z,97829.31
2023-03-05T20:00:49.668Z,97843.03
2023-03-05T20:05:54.224Z,97836.75
2023-03-05T20:10:58.101Z,97836.50
2023-03-05T20:16:01.726Z,97826.78
2023-03-05T20:21:06.638Z,97837.00
2023-03-05T20:26:10.079Z,97828.19
2023-03-05T20:31:13.743Z,97821.03
2023-03-05T20:36:18.838Z,97824.28
2023-03-05T20:41:22.157Z,97822.41
2023-03-05T20:46:27.615Z,97818.03
2023-03-05T20:51:36.088Z,97824.91
2023-03-05T20:56:39.761Z,97815.00
2023-03-05T21:01:43.068Z,97822.53
2023-03-05T21:06:47.767Z,97820.41
2023-03-05T21:11:51.151Z,97821.09
2023-03-05T21:16:54.600Z,97817.81
2023-03-05T21:21:59.292Z,97830.09
2023-03-05T21:27:02.556Z,97830.97
2023-03-05T21:32:06.139Z,97843.00
2023-03-05T21:37:10.856Z,97841.09
2023-03-05T21:42:14.335Z,97832.28
2023-03-05T21:47:17.583Z,97835.53
2023-03-05T21:52:22.765Z,97838.84
2023-03-05T21:57:27.388Z,97831.88
2023-03-05T22:02:30.846Z,97836.97
2023-03-05T22:07:35.634Z,97839.66
2023-03-05T22:12:54.229Z,97839.88
2023-03-05T22:17:57.537Z,97836.78
2023-03-05T22:23:02.557Z,97833.81
2023-03-05T22:28:06.638Z,97841.75
2023-03-05T22:33:09.856Z,97845.88
2023-03-05T22:38:15.432Z,97844.66
2023-03-05T22:43:20.578Z,97844.44
2023-03-05T22:48:23.820Z,97839.84
2023-03-05T22:53:28.529Z,97846.56
2023-03-05T22:58:33.199Z,97848.06
2023-03-05T23:03:36.452Z,97840.09
2023-03-05T23:08:41.288Z,97849.50
2023-03-05T23:13:44.952Z,97847.00
2023-03-05T23:18:48.359Z,97854.97
2023-03-05T23:23:53.959Z,97852.38
2023-03-05T23:28:57.168Z,97850.50
2023-03-05T23:34:00.320Z,97845.28
2023-03-05T23:39:05.089Z,97847.00
2023-03-05T23:44:08.593Z,97846.13
2023-03-05T23:49:11.820Z,97849.50
2023-03-05T23:54:16.645Z,97850.34
2023-03-05T23:59:20.945Z,97848.78
